EXS17TU GCRR-EGKK
Flight info
| Callsign | EXS17TU |
|---|---|
| Flight time | 3h 38m |
| Altitude | 34000 |
| Route | VASTO7M VASTO DCT NIDEB DCT TIGGI DCT BUSEN DCT PINEK DCT KORUL DCT FEJAC DCT JSY DCT REVTU UP88 VASUX VASUX1G |
| Aircraft | A321/M-SDE3FGHIRWY/LB1 |
Departure
| Time | 2026-05-05 10:29 |
|---|---|
| Airport | César Manrique-Lanzarote Airport (GCRR) |
Arrival
| Time | 2026-05-05 14:07 |
|---|---|
| Airport | London Gatwick Airport (EGKK) |
| Time | Latitude | Longitude | Altitude | Speed | Heading |
|---|---|---|---|---|---|
| 2026-05-05 10:00 | 28.95185 | -13.60590 | 50 ft | 0 kts | 297° |
| 2026-05-05 10:15 | 28.95182 | -13.60583 | 24 ft | 4 kts | 296° |
| 2026-05-05 10:15 | 28.95171 | -13.60554 | 48 ft | 4 kts | 283° |
| 2026-05-05 10:16 | 28.95170 | -13.60526 | 45 ft | 4 kts | 245° |
| 2026-05-05 10:16 | 28.95178 | -13.60513 | 45 ft | 0 kts | 208° |
| 2026-05-05 10:19 | 28.95175 | -13.60515 | 45 ft | 2 kts | 208° |
| 2026-05-05 10:19 | 28.95157 | -13.60517 | 46 ft | 2 kts | 172° |
| 2026-05-05 10:19 | 28.95132 | -13.60493 | 47 ft | 4 kts | 127° |
| 2026-05-05 10:20 | 28.95119 | -13.60466 | 49 ft | 3 kts | 119° |
| 2026-05-05 10:20 | 28.95102 | -13.60442 | 48 ft | 4 kts | 141° |
| 2026-05-05 10:20 | 28.95075 | -13.60434 | 48 ft | 4 kts | 176° |
| 2026-05-05 10:20 | 28.95051 | -13.60441 | 48 ft | 4 kts | 202° |
| 2026-05-05 10:21 | 28.95026 | -13.60455 | 48 ft | 4 kts | 206° |
| 2026-05-05 10:21 | 28.94998 | -13.60470 | 47 ft | 5 kts | 206° |
| 2026-05-05 10:21 | 28.94968 | -13.60488 | 47 ft | 5 kts | 206° |
| 2026-05-05 10:21 | 28.94939 | -13.60504 | 46 ft | 5 kts | 206° |
| 2026-05-05 10:22 | 28.94906 | -13.60522 | 46 ft | 8 kts | 207° |
| 2026-05-05 10:22 | 28.94846 | -13.60559 | 45 ft | 10 kts | 208° |
| 2026-05-05 10:22 | 28.94785 | -13.60594 | 42 ft | 9 kts | 207° |
| 2026-05-05 10:22 | 28.94729 | -13.60627 | 43 ft | 9 kts | 207° |
| 2026-05-05 10:23 | 28.94672 | -13.60660 | 42 ft | 10 kts | 207° |
| 2026-05-05 10:23 | 28.94613 | -13.60693 | 40 ft | 9 kts | 207° |
| 2026-05-05 10:23 | 28.94556 | -13.60726 | 41 ft | 10 kts | 207° |
| 2026-05-05 10:23 | 28.94470 | -13.60776 | 38 ft | 14 kts | 206° |
| 2026-05-05 10:24 | 28.94391 | -13.60821 | 38 ft | 12 kts | 206° |
| 2026-05-05 10:24 | 28.94319 | -13.60861 | 37 ft | 11 kts | 207° |
| 2026-05-05 10:24 | 28.94249 | -13.60901 | 36 ft | 13 kts | 207° |
| 2026-05-05 10:24 | 28.94162 | -13.60954 | 35 ft | 14 kts | 208° |
| 2026-05-05 10:25 | 28.94079 | -13.61003 | 34 ft | 13 kts | 206° |
| 2026-05-05 10:25 | 28.94003 | -13.61046 | 33 ft | 12 kts | 206° |
| 2026-05-05 10:25 | 28.93933 | -13.61086 | 32 ft | 11 kts | 206° |
| 2026-05-05 10:25 | 28.93867 | -13.61123 | 31 ft | 10 kts | 206° |
| 2026-05-05 10:26 | 28.93807 | -13.61157 | 30 ft | 9 kts | 207° |
| 2026-05-05 10:26 | 28.93751 | -13.61190 | 29 ft | 9 kts | 207° |
| 2026-05-05 10:26 | 28.93697 | -13.61219 | 28 ft | 8 kts | 200° |
| 2026-05-05 10:26 | 28.93650 | -13.61202 | 28 ft | 7 kts | 136° |
| 2026-05-05 10:27 | 28.93626 | -13.61158 | 27 ft | 6 kts | 118° |
| 2026-05-05 10:27 | 28.93610 | -13.61116 | 27 ft | 5 kts | 104° |
| 2026-05-05 10:27 | 28.93612 | -13.61084 | 28 ft | 3 kts | 71° |
| 2026-05-05 10:27 | 28.93628 | -13.61056 | 28 ft | 7 kts | 45° |
| 2026-05-05 10:28 | 28.93656 | -13.61038 | 29 ft | 2 kts | 27° |
| 2026-05-05 10:28 | 28.93716 | -13.61002 | 30 ft | 34 kts | 27° |
| 2026-05-05 10:28 | 28.94138 | -13.60755 | 37 ft | 100 kts | 26° |
| 2026-05-05 10:28 | 28.94923 | -13.60312 | 50 ft | 150 kts | 26° |
| 2026-05-05 10:29 | 28.95908 | -13.59745 | 469 ft | 158 kts | 30° |
| 2026-05-05 10:29 | 28.96860 | -13.59144 | 1130 ft | 155 kts | 33° |
| 2026-05-05 10:29 | 28.97772 | -13.58380 | 1306 ft | 171 kts | 39° |
| 2026-05-05 10:29 | 28.98746 | -13.57486 | 1445 ft | 188 kts | 39° |
| 2026-05-05 10:30 | 28.99806 | -13.56519 | 1584 ft | 202 kts | 39° |
| 2026-05-05 10:30 | 29.00895 | -13.55484 | 1938 ft | 201 kts | 45° |
| 2026-05-05 10:30 | 29.01805 | -13.54297 | 2502 ft | 196 kts | 52° |
| 2026-05-05 10:30 | 29.02636 | -13.53082 | 3057 ft | 193 kts | 53° |
| 2026-05-05 10:31 | 29.03451 | -13.51878 | 3591 ft | 192 kts | 52° |
| 2026-05-05 10:31 | 29.04284 | -13.50658 | 3979 ft | 197 kts | 51° |
| 2026-05-05 10:31 | 29.05139 | -13.49418 | 4382 ft | 201 kts | 51° |
| 2026-05-05 10:31 | 29.06019 | -13.48157 | 4790 ft | 205 kts | 50° |
| 2026-05-05 10:32 | 29.06924 | -13.46877 | 5182 ft | 209 kts | 49° |
| 2026-05-05 10:32 | 29.07847 | -13.45573 | 5577 ft | 213 kts | 49° |
| 2026-05-05 10:32 | 29.08793 | -13.44244 | 5940 ft | 220 kts | 49° |
| 2026-05-05 10:32 | 29.09918 | -13.42955 | 6044 ft | 239 kts | 31° |
| 2026-05-05 10:33 | 29.11479 | -13.42156 | 6198 ft | 256 kts | 9° |
| 2026-05-05 10:33 | 29.13303 | -13.42087 | 6394 ft | 271 kts | 348° |
| 2026-05-05 10:33 | 29.15199 | -13.42426 | 6874 ft | 279 kts | 348° |
| 2026-05-05 10:33 | 29.17133 | -13.42757 | 7445 ft | 283 kts | 349° |
| 2026-05-05 10:34 | 29.19099 | -13.43082 | 8033 ft | 287 kts | 349° |
| 2026-05-05 10:34 | 29.21087 | -13.43409 | 8634 ft | 290 kts | 348° |
| 2026-05-05 10:34 | 29.23097 | -13.43742 | 9232 ft | 294 kts | 348° |
| 2026-05-05 10:34 | 29.25131 | -13.44080 | 9826 ft | 297 kts | 347° |
| 2026-05-05 10:35 | 29.27203 | -13.44427 | 10214 ft | 309 kts | 347° |
| 2026-05-05 10:35 | 29.29395 | -13.44800 | 10337 ft | 329 kts | 347° |
| 2026-05-05 10:35 | 29.31721 | -13.45197 | 10458 ft | 347 kts | 347° |
| 2026-05-05 10:35 | 29.34170 | -13.45614 | 10668 ft | 362 kts | 347° |
| 2026-05-05 10:36 | 29.36683 | -13.46033 | 11147 ft | 367 kts | 347° |
| 2026-05-05 10:36 | 29.39217 | -13.46449 | 11687 ft | 370 kts | 347° |
| 2026-05-05 10:36 | 29.41779 | -13.46866 | 12241 ft | 373 kts | 347° |
| 2026-05-05 10:36 | 29.44360 | -13.47280 | 12801 ft | 377 kts | 347° |
| 2026-05-05 10:37 | 29.46980 | -13.47608 | 13366 ft | 381 kts | 349° |
| 2026-05-05 10:37 | 29.49602 | -13.47858 | 13906 ft | 385 kts | 350° |
| 2026-05-05 10:37 | 29.52282 | -13.48073 | 14388 ft | 388 kts | 350° |
| 2026-05-05 10:37 | 29.54987 | -13.48282 | 14873 ft | 391 kts | 350° |
| 2026-05-05 10:38 | 29.57712 | -13.48502 | 15356 ft | 394 kts | 350° |
| 2026-05-05 10:38 | 29.60453 | -13.48737 | 15835 ft | 396 kts | 349° |
| 2026-05-05 10:38 | 29.63208 | -13.48988 | 16312 ft | 399 kts | 349° |
| 2026-05-05 10:38 | 29.65986 | -13.49255 | 16768 ft | 402 kts | 349° |
| 2026-05-05 10:39 | 29.68786 | -13.49529 | 17219 ft | 405 kts | 349° |
| 2026-05-05 10:39 | 29.71602 | -13.49800 | 17671 ft | 408 kts | 349° |
| 2026-05-05 10:39 | 29.74442 | -13.50067 | 18110 ft | 412 kts | 348° |
| 2026-05-05 10:39 | 29.77309 | -13.50336 | 18514 ft | 415 kts | 348° |
| 2026-05-05 10:40 | 29.79257 | -13.50517 | 18771 ft | 417 kts | 348° |
| 2026-05-05 10:40 | 29.82155 | -13.50785 | 19140 ft | 419 kts | 348° |
| 2026-05-05 10:40 | 29.85073 | -13.51058 | 19518 ft | 422 kts | 348° |
| 2026-05-05 10:40 | 29.88006 | -13.51336 | 19893 ft | 424 kts | 348° |
| 2026-05-05 10:41 | 29.90953 | -13.51616 | 20277 ft | 426 kts | 348° |
| 2026-05-05 10:41 | 29.93880 | -13.51892 | 20652 ft | 429 kts | 348° |
| 2026-05-05 10:41 | 29.96901 | -13.52176 | 21030 ft | 431 kts | 348° |
| 2026-05-05 10:41 | 29.99847 | -13.52452 | 21405 ft | 432 kts | 348° |
| 2026-05-05 10:42 | 30.05871 | -13.53015 | 22182 ft | 436 kts | 347° |
| 2026-05-05 10:42 | 30.08898 | -13.53301 | 22565 ft | 438 kts | 347° |
| 2026-05-05 10:42 | 30.11943 | -13.53587 | 22948 ft | 440 kts | 347° |
| 2026-05-05 10:43 | 30.14998 | -13.53875 | 23329 ft | 441 kts | 347° |
| 2026-05-05 10:43 | 30.18066 | -13.54163 | 23692 ft | 443 kts | 347° |
| 2026-05-05 10:43 | 30.21144 | -13.54453 | 23994 ft | 445 kts | 347° |
| 2026-05-05 10:43 | 30.24239 | -13.54747 | 24284 ft | 447 kts | 347° |
| 2026-05-05 10:44 | 30.27348 | -13.55042 | 24555 ft | 449 kts | 347° |
| 2026-05-05 10:44 | 30.30465 | -13.55339 | 24821 ft | 452 kts | 347° |
| 2026-05-05 10:44 | 30.33611 | -13.55639 | 25084 ft | 454 kts | 347° |
| 2026-05-05 10:44 | 30.36769 | -13.55940 | 25351 ft | 456 kts | 347° |
| 2026-05-05 10:45 | 30.39944 | -13.56242 | 25614 ft | 459 kts | 347° |
| 2026-05-05 10:45 | 30.43135 | -13.56545 | 25871 ft | 461 kts | 347° |
| 2026-05-05 10:45 | 30.46343 | -13.56840 | 26127 ft | 465 kts | 348° |
| 2026-05-05 10:45 | 30.49626 | -13.56707 | 26358 ft | 480 kts | 0° |
| 2026-05-05 10:46 | 30.52926 | -13.55801 | 26605 ft | 495 kts | 13° |
| 2026-05-05 10:46 | 30.56083 | -13.54081 | 26823 ft | 506 kts | 23° |
| 2026-05-05 10:46 | 30.59179 | -13.52119 | 27048 ft | 509 kts | 23° |
| 2026-05-05 10:46 | 30.62298 | -13.50157 | 27279 ft | 511 kts | 23° |
| 2026-05-05 10:47 | 30.65435 | -13.48196 | 27503 ft | 513 kts | 22° |
| 2026-05-05 10:47 | 30.68589 | -13.46231 | 27728 ft | 515 kts | 22° |
| 2026-05-05 10:47 | 30.71747 | -13.44259 | 27944 ft | 517 kts | 22° |
| 2026-05-05 10:47 | 30.74922 | -13.42270 | 28168 ft | 520 kts | 23° |
| 2026-05-05 10:48 | 30.78118 | -13.40265 | 28388 ft | 522 kts | 23° |
| 2026-05-05 10:48 | 30.81320 | -13.38251 | 28590 ft | 524 kts | 23° |
| 2026-05-05 10:48 | 30.84531 | -13.36228 | 28808 ft | 527 kts | 23° |
| 2026-05-05 10:48 | 30.87756 | -13.34193 | 29021 ft | 529 kts | 23° |
| 2026-05-05 10:49 | 30.91001 | -13.32144 | 29216 ft | 531 kts | 23° |
| 2026-05-05 10:49 | 30.94255 | -13.30086 | 29506 ft | 531 kts | 23° |
| 2026-05-05 10:49 | 30.97499 | -13.28027 | 29808 ft | 531 kts | 23° |
| 2026-05-05 10:49 | 31.00700 | -13.25999 | 30074 ft | 531 kts | 23° |
| 2026-05-05 10:50 | 31.03953 | -13.23942 | 30313 ft | 532 kts | 23° |
| 2026-05-05 10:50 | 31.07202 | -13.21889 | 30562 ft | 532 kts | 22° |
| 2026-05-05 10:50 | 31.10452 | -13.19832 | 30818 ft | 531 kts | 22° |
| 2026-05-05 10:50 | 31.13693 | -13.17773 | 31082 ft | 531 kts | 22° |
| 2026-05-05 10:51 | 31.16940 | -13.15710 | 31344 ft | 530 kts | 22° |
| 2026-05-05 10:51 | 31.20180 | -13.13654 | 31616 ft | 529 kts | 22° |
| 2026-05-05 10:51 | 31.23408 | -13.11603 | 31889 ft | 528 kts | 22° |
| 2026-05-05 10:51 | 31.26635 | -13.09547 | 32170 ft | 528 kts | 22° |
| 2026-05-05 10:52 | 31.29852 | -13.07494 | 32463 ft | 526 kts | 22° |
| 2026-05-05 10:52 | 31.33062 | -13.05447 | 32753 ft | 525 kts | 22° |
| 2026-05-05 10:52 | 31.36262 | -13.03405 | 33042 ft | 524 kts | 22° |
| 2026-05-05 10:52 | 31.39456 | -13.01365 | 33330 ft | 522 kts | 22° |
| 2026-05-05 10:53 | 31.42640 | -12.99335 | 33613 ft | 521 kts | 22° |
| 2026-05-05 10:53 | 31.45820 | -12.97307 | 33897 ft | 520 kts | 22° |
| 2026-05-05 10:53 | 31.48991 | -12.95280 | 34083 ft | 519 kts | 22° |
| 2026-05-05 10:54 | 31.55274 | -12.91250 | 34110 ft | 512 kts | 22° |
| 2026-05-05 10:54 | 31.61501 | -12.87252 | 34119 ft | 509 kts | 22° |
| 2026-05-05 10:55 | 31.67706 | -12.83265 | 34116 ft | 508 kts | 22° |
| 2026-05-05 10:55 | 31.73900 | -12.79291 | 34118 ft | 507 kts | 23° |
| 2026-05-05 10:56 | 31.80036 | -12.75347 | 34119 ft | 506 kts | 23° |
| 2026-05-05 10:56 | 31.86208 | -12.71361 | 34130 ft | 506 kts | 23° |
| 2026-05-05 10:57 | 31.92375 | -12.67375 | 34140 ft | 505 kts | 23° |
| 2026-05-05 10:57 | 31.98528 | -12.63391 | 34145 ft | 504 kts | 23° |
| 2026-05-05 10:58 | 32.04662 | -12.59414 | 34145 ft | 503 kts | 23° |
| 2026-05-05 10:58 | 32.10785 | -12.55436 | 34147 ft | 502 kts | 24° |
| 2026-05-05 10:59 | 32.16887 | -12.51457 | 34149 ft | 501 kts | 24° |
| 2026-05-05 10:59 | 32.22980 | -12.47481 | 34151 ft | 499 kts | 24° |
| 2026-05-05 11:00 | 32.29055 | -12.43530 | 34158 ft | 498 kts | 24° |
| 2026-05-05 11:00 | 32.35106 | -12.39583 | 34157 ft | 496 kts | 24° |
| 2026-05-05 11:01 | 32.41127 | -12.35636 | 34159 ft | 493 kts | 25° |
| 2026-05-05 11:01 | 32.47081 | -12.31732 | 34160 ft | 491 kts | 25° |
| 2026-05-05 11:02 | 32.53040 | -12.27822 | 34164 ft | 488 kts | 25° |
| 2026-05-05 11:02 | 32.58965 | -12.23928 | 34161 ft | 486 kts | 25° |
| 2026-05-05 11:03 | 32.64862 | -12.20041 | 34159 ft | 484 kts | 25° |
| 2026-05-05 11:03 | 32.70740 | -12.16170 | 34159 ft | 482 kts | 25° |
| 2026-05-05 11:04 | 32.76599 | -12.12307 | 34155 ft | 481 kts | 26° |
| 2026-05-05 11:04 | 32.82439 | -12.08439 | 34160 ft | 480 kts | 26° |
| 2026-05-05 11:05 | 32.88261 | -12.04583 | 34155 ft | 479 kts | 26° |
| 2026-05-05 11:05 | 32.94072 | -12.00733 | 34160 ft | 477 kts | 25° |
| 2026-05-05 11:06 | 33.00185 | -11.97904 | 34164 ft | 469 kts | 12° |
| 2026-05-05 11:06 | 33.06463 | -11.95792 | 34159 ft | 468 kts | 12° |
| 2026-05-05 11:07 | 33.12724 | -11.93667 | 34143 ft | 467 kts | 12° |
| 2026-05-05 11:07 | 33.18972 | -11.91535 | 34148 ft | 467 kts | 12° |
| 2026-05-05 11:08 | 33.25211 | -11.89405 | 34144 ft | 466 kts | 13° |
| 2026-05-05 11:08 | 33.31403 | -11.87288 | 34150 ft | 466 kts | 13° |
| 2026-05-05 11:09 | 33.37624 | -11.85156 | 34148 ft | 465 kts | 13° |
| 2026-05-05 11:09 | 33.43844 | -11.83023 | 34147 ft | 465 kts | 13° |
| 2026-05-05 11:10 | 33.50060 | -11.80888 | 34143 ft | 464 kts | 13° |
| 2026-05-05 11:10 | 33.56270 | -11.78762 | 34146 ft | 464 kts | 13° |
| 2026-05-05 11:11 | 33.62473 | -11.76625 | 34154 ft | 464 kts | 13° |
| 2026-05-05 11:11 | 33.68671 | -11.74480 | 34153 ft | 463 kts | 13° |
| 2026-05-05 11:12 | 33.74860 | -11.72345 | 34157 ft | 463 kts | 13° |
| 2026-05-05 11:12 | 33.81042 | -11.70206 | 34162 ft | 462 kts | 13° |
| 2026-05-05 11:13 | 33.87221 | -11.68073 | 34160 ft | 462 kts | 13° |
| 2026-05-05 11:13 | 33.93397 | -11.65941 | 34161 ft | 461 kts | 13° |
| 2026-05-05 11:14 | 33.99564 | -11.63795 | 34160 ft | 461 kts | 13° |
| 2026-05-05 11:14 | 34.05730 | -11.61645 | 34158 ft | 461 kts | 13° |
| 2026-05-05 11:15 | 34.11891 | -11.59496 | 34158 ft | 461 kts | 13° |
| 2026-05-05 11:15 | 34.18049 | -11.57348 | 34154 ft | 461 kts | 13° |
| 2026-05-05 11:16 | 34.24208 | -11.55202 | 34156 ft | 461 kts | 13° |
| 2026-05-05 11:16 | 34.30323 | -11.53066 | 34158 ft | 461 kts | 13° |
| 2026-05-05 11:17 | 34.36487 | -11.50909 | 34157 ft | 461 kts | 13° |
| 2026-05-05 11:17 | 34.42640 | -11.48753 | 34162 ft | 460 kts | 13° |
| 2026-05-05 11:18 | 34.48792 | -11.46584 | 34158 ft | 461 kts | 13° |
| 2026-05-05 11:18 | 34.54948 | -11.44409 | 34157 ft | 461 kts | 13° |
| 2026-05-05 11:19 | 34.61106 | -11.42245 | 34166 ft | 461 kts | 13° |
| 2026-05-05 11:19 | 34.67260 | -11.40066 | 34163 ft | 461 kts | 13° |
| 2026-05-05 11:20 | 34.73418 | -11.37882 | 34159 ft | 461 kts | 13° |
| 2026-05-05 11:20 | 34.79590 | -11.35701 | 34150 ft | 462 kts | 13° |
| 2026-05-05 11:21 | 34.85764 | -11.33510 | 34154 ft | 463 kts | 13° |
| 2026-05-05 11:21 | 34.91949 | -11.31309 | 34156 ft | 463 kts | 12° |
| 2026-05-05 11:22 | 34.98145 | -11.29107 | 34159 ft | 464 kts | 12° |
| 2026-05-05 11:22 | 35.04345 | -11.26908 | 34170 ft | 464 kts | 12° |
| 2026-05-05 11:23 | 35.10547 | -11.24687 | 34174 ft | 464 kts | 12° |
| 2026-05-05 11:23 | 35.16750 | -11.22461 | 34178 ft | 465 kts | 12° |
| 2026-05-05 11:24 | 35.22912 | -11.20261 | 34180 ft | 464 kts | 12° |
| 2026-05-05 11:24 | 35.29114 | -11.18045 | 34185 ft | 464 kts | 12° |
| 2026-05-05 11:25 | 35.35309 | -11.15809 | 34186 ft | 464 kts | 12° |
| 2026-05-05 11:25 | 35.41498 | -11.13572 | 34183 ft | 463 kts | 12° |
| 2026-05-05 11:26 | 35.47683 | -11.11349 | 34182 ft | 463 kts | 12° |
| 2026-05-05 11:26 | 35.53864 | -11.09116 | 34186 ft | 463 kts | 12° |
| 2026-05-05 11:27 | 35.60048 | -11.06874 | 34184 ft | 463 kts | 12° |
| 2026-05-05 11:27 | 35.66228 | -11.04639 | 34186 ft | 463 kts | 12° |
| 2026-05-05 11:28 | 35.72410 | -11.02399 | 34185 ft | 463 kts | 12° |
| 2026-05-05 11:28 | 35.78585 | -11.00152 | 34197 ft | 463 kts | 12° |
| 2026-05-05 11:29 | 35.84751 | -10.97904 | 34202 ft | 461 kts | 12° |
| 2026-05-05 11:29 | 35.90906 | -10.95661 | 34195 ft | 461 kts | 12° |
| 2026-05-05 11:30 | 35.97053 | -10.93411 | 34186 ft | 461 kts | 12° |
| 2026-05-05 11:30 | 36.03211 | -10.91224 | 34186 ft | 460 kts | 11° |
| 2026-05-05 11:31 | 36.09378 | -10.89086 | 34183 ft | 460 kts | 11° |
| 2026-05-05 11:31 | 36.14503 | -10.87302 | 34183 ft | 460 kts | 11° |
| 2026-05-05 11:32 | 36.20668 | -10.85138 | 34183 ft | 460 kts | 11° |
| 2026-05-05 11:32 | 36.26827 | -10.82962 | 34185 ft | 460 kts | 11° |
| 2026-05-05 11:33 | 36.32989 | -10.80784 | 34184 ft | 460 kts | 11° |
| 2026-05-05 11:33 | 36.39150 | -10.78599 | 34184 ft | 460 kts | 11° |
| 2026-05-05 11:34 | 36.45309 | -10.76415 | 34183 ft | 460 kts | 11° |
| 2026-05-05 11:34 | 36.51465 | -10.74229 | 34190 ft | 460 kts | 11° |
| 2026-05-05 11:35 | 36.57622 | -10.72039 | 34187 ft | 460 kts | 11° |
| 2026-05-05 11:35 | 36.63771 | -10.69841 | 34193 ft | 460 kts | 11° |
| 2026-05-05 11:36 | 36.69924 | -10.67637 | 34193 ft | 460 kts | 11° |
| 2026-05-05 11:36 | 36.76072 | -10.65443 | 34189 ft | 459 kts | 11° |
| 2026-05-05 11:37 | 36.82174 | -10.63275 | 34192 ft | 459 kts | 11° |
| 2026-05-05 11:37 | 36.88310 | -10.61074 | 34189 ft | 459 kts | 11° |
| 2026-05-05 11:38 | 36.94436 | -10.58869 | 34187 ft | 458 kts | 11° |
| 2026-05-05 11:38 | 37.00559 | -10.56657 | 34188 ft | 458 kts | 11° |
| 2026-05-05 11:39 | 37.06681 | -10.54442 | 34187 ft | 458 kts | 11° |
| 2026-05-05 11:39 | 37.12805 | -10.52236 | 34187 ft | 458 kts | 11° |
| 2026-05-05 11:40 | 37.18926 | -10.50026 | 34183 ft | 458 kts | 11° |
| 2026-05-05 11:40 | 37.25047 | -10.47814 | 34168 ft | 458 kts | 11° |
| 2026-05-05 11:41 | 37.31163 | -10.45593 | 34167 ft | 458 kts | 11° |
| 2026-05-05 11:41 | 37.37287 | -10.43359 | 34163 ft | 458 kts | 10° |
| 2026-05-05 11:42 | 37.43411 | -10.41126 | 34171 ft | 459 kts | 10° |
| 2026-05-05 11:42 | 37.49551 | -10.38890 | 34170 ft | 459 kts | 10° |
| 2026-05-05 11:43 | 37.55686 | -10.36647 | 34180 ft | 459 kts | 10° |
| 2026-05-05 11:43 | 37.61827 | -10.34403 | 34183 ft | 460 kts | 10° |
| 2026-05-05 11:44 | 37.67969 | -10.32152 | 34182 ft | 460 kts | 10° |
| 2026-05-05 11:44 | 37.74113 | -10.29892 | 34176 ft | 460 kts | 10° |
| 2026-05-05 11:45 | 37.80265 | -10.27634 | 34187 ft | 460 kts | 10° |
| 2026-05-05 11:45 | 37.86418 | -10.25368 | 34188 ft | 461 kts | 10° |
| 2026-05-05 11:46 | 37.92572 | -10.23098 | 34187 ft | 461 kts | 10° |
| 2026-05-05 11:46 | 37.98728 | -10.20821 | 34185 ft | 461 kts | 9° |
| 2026-05-05 11:47 | 38.04888 | -10.18535 | 34182 ft | 461 kts | 9° |
| 2026-05-05 11:47 | 38.11045 | -10.16249 | 34185 ft | 461 kts | 9° |
| 2026-05-05 11:48 | 38.20247 | -10.12824 | 34186 ft | 461 kts | 9° |
| 2026-05-05 11:48 | 38.26407 | -10.10525 | 34191 ft | 462 kts | 9° |
| 2026-05-05 11:49 | 38.32572 | -10.08220 | 34183 ft | 462 kts | 9° |
| 2026-05-05 11:49 | 38.38736 | -10.05923 | 34184 ft | 462 kts | 9° |
| 2026-05-05 11:50 | 38.44899 | -10.03615 | 34178 ft | 462 kts | 9° |
| 2026-05-05 11:50 | 38.51063 | -10.01298 | 34179 ft | 462 kts | 9° |
| 2026-05-05 11:51 | 38.57219 | -9.98961 | 34182 ft | 462 kts | 9° |
| 2026-05-05 11:51 | 38.63358 | -9.96487 | 34182 ft | 463 kts | 11° |
| 2026-05-05 11:52 | 38.69481 | -9.93960 | 34183 ft | 462 kts | 10° |
| 2026-05-05 11:52 | 38.75608 | -9.91455 | 34179 ft | 462 kts | 10° |
| 2026-05-05 11:53 | 38.81728 | -9.88975 | 34178 ft | 461 kts | 10° |
| 2026-05-05 11:53 | 38.87844 | -9.86488 | 34178 ft | 461 kts | 11° |
| 2026-05-05 11:54 | 38.93955 | -9.83995 | 34180 ft | 460 kts | 11° |
| 2026-05-05 11:54 | 39.00056 | -9.81509 | 34186 ft | 459 kts | 11° |
| 2026-05-05 11:55 | 39.06143 | -9.79027 | 34177 ft | 459 kts | 11° |
| 2026-05-05 11:55 | 39.12226 | -9.76540 | 34179 ft | 458 kts | 11° |
| 2026-05-05 11:56 | 39.18289 | -9.74050 | 34175 ft | 457 kts | 11° |
| 2026-05-05 11:56 | 39.24335 | -9.71555 | 34175 ft | 456 kts | 11° |
| 2026-05-05 11:57 | 39.30376 | -9.69065 | 34172 ft | 455 kts | 11° |
| 2026-05-05 11:57 | 39.36405 | -9.66577 | 34175 ft | 454 kts | 11° |
| 2026-05-05 11:58 | 39.42425 | -9.64093 | 34174 ft | 454 kts | 11° |
| 2026-05-05 11:58 | 39.48438 | -9.61601 | 34168 ft | 453 kts | 11° |
| 2026-05-05 11:59 | 39.54442 | -9.59108 | 34169 ft | 453 kts | 11° |
| 2026-05-05 11:59 | 39.60441 | -9.56610 | 34169 ft | 452 kts | 11° |
| 2026-05-05 12:00 | 39.66428 | -9.54121 | 34174 ft | 452 kts | 11° |
| 2026-05-05 12:00 | 39.72409 | -9.51628 | 34175 ft | 451 kts | 11° |
| 2026-05-05 12:01 | 39.78328 | -9.49152 | 34175 ft | 449 kts | 11° |
| 2026-05-05 12:01 | 39.84273 | -9.46662 | 34167 ft | 449 kts | 12° |
| 2026-05-05 12:02 | 39.90208 | -9.44170 | 34170 ft | 447 kts | 12° |
| 2026-05-05 12:02 | 39.96124 | -9.41677 | 34165 ft | 446 kts | 12° |
| 2026-05-05 12:03 | 40.02023 | -9.39199 | 34161 ft | 445 kts | 12° |
| 2026-05-05 12:03 | 40.07909 | -9.36721 | 34160 ft | 444 kts | 11° |
| 2026-05-05 12:04 | 40.13780 | -9.34241 | 34163 ft | 443 kts | 11° |
| 2026-05-05 12:04 | 40.19644 | -9.31755 | 34156 ft | 443 kts | 11° |
| 2026-05-05 12:05 | 40.25501 | -9.29272 | 34157 ft | 442 kts | 11° |
| 2026-05-05 12:05 | 40.31349 | -9.26796 | 34159 ft | 442 kts | 11° |
| 2026-05-05 12:06 | 40.37190 | -9.24315 | 34156 ft | 441 kts | 11° |
| 2026-05-05 12:06 | 40.43025 | -9.21820 | 34154 ft | 441 kts | 11° |
| 2026-05-05 12:07 | 40.48849 | -9.19326 | 34152 ft | 440 kts | 11° |
| 2026-05-05 12:07 | 40.54626 | -9.16860 | 34151 ft | 439 kts | 11° |
| 2026-05-05 12:08 | 40.60474 | -9.14358 | 34155 ft | 439 kts | 11° |
| 2026-05-05 12:08 | 40.66228 | -9.11878 | 34159 ft | 438 kts | 11° |
| 2026-05-05 12:09 | 40.72007 | -9.09381 | 34159 ft | 436 kts | 11° |
| 2026-05-05 12:09 | 40.77765 | -9.06900 | 34159 ft | 435 kts | 11° |
| 2026-05-05 12:10 | 40.83508 | -9.04430 | 34160 ft | 433 kts | 11° |
| 2026-05-05 12:10 | 40.89227 | -9.01963 | 34144 ft | 432 kts | 11° |
| 2026-05-05 12:11 | 40.94929 | -8.99484 | 34149 ft | 430 kts | 11° |
| 2026-05-05 12:11 | 41.00609 | -8.97005 | 34146 ft | 429 kts | 11° |
| 2026-05-05 12:12 | 41.06275 | -8.94539 | 34147 ft | 428 kts | 11° |
| 2026-05-05 12:12 | 41.11924 | -8.92083 | 34152 ft | 427 kts | 11° |
| 2026-05-05 12:13 | 41.17562 | -8.89632 | 34150 ft | 426 kts | 11° |
| 2026-05-05 12:13 | 41.23183 | -8.87176 | 34145 ft | 425 kts | 11° |
| 2026-05-05 12:14 | 41.28792 | -8.84706 | 34146 ft | 424 kts | 11° |
| 2026-05-05 12:14 | 41.34381 | -8.82245 | 34144 ft | 423 kts | 11° |
| 2026-05-05 12:15 | 41.39966 | -8.79795 | 34148 ft | 422 kts | 11° |
| 2026-05-05 12:15 | 41.45537 | -8.77348 | 34145 ft | 422 kts | 11° |
| 2026-05-05 12:16 | 41.51104 | -8.74892 | 34142 ft | 421 kts | 11° |
| 2026-05-05 12:16 | 41.56670 | -8.72432 | 34136 ft | 421 kts | 11° |
| 2026-05-05 12:17 | 41.62220 | -8.69972 | 34138 ft | 420 kts | 11° |
| 2026-05-05 12:17 | 41.67772 | -8.67503 | 34139 ft | 420 kts | 11° |
| 2026-05-05 12:18 | 41.73316 | -8.65037 | 34140 ft | 420 kts | 11° |
| 2026-05-05 12:18 | 41.78860 | -8.62570 | 34136 ft | 420 kts | 11° |
| 2026-05-05 12:19 | 41.83500 | -8.60500 | 34123 ft | 419 kts | 12° |
| 2026-05-05 12:19 | 41.89010 | -8.57861 | 34122 ft | 422 kts | 14° |
| 2026-05-05 12:20 | 41.94456 | -8.54897 | 34114 ft | 423 kts | 15° |
| 2026-05-05 12:20 | 41.99898 | -8.51878 | 34115 ft | 423 kts | 15° |
| 2026-05-05 12:21 | 42.05354 | -8.48931 | 34111 ft | 423 kts | 15° |
| 2026-05-05 12:21 | 42.10818 | -8.46005 | 34109 ft | 423 kts | 15° |
| 2026-05-05 12:22 | 42.16291 | -8.43067 | 34106 ft | 423 kts | 15° |
| 2026-05-05 12:22 | 42.21763 | -8.40118 | 34108 ft | 424 kts | 16° |
| 2026-05-05 12:23 | 42.27206 | -8.37170 | 34101 ft | 424 kts | 16° |
| 2026-05-05 12:23 | 42.32689 | -8.34196 | 34093 ft | 425 kts | 16° |
| 2026-05-05 12:24 | 42.38215 | -8.31201 | 34083 ft | 425 kts | 16° |
| 2026-05-05 12:24 | 42.43702 | -8.28217 | 34078 ft | 426 kts | 16° |
| 2026-05-05 12:25 | 42.49204 | -8.25220 | 34080 ft | 426 kts | 17° |
| 2026-05-05 12:25 | 42.54706 | -8.22218 | 34078 ft | 427 kts | 17° |
| 2026-05-05 12:26 | 42.60215 | -8.19211 | 34081 ft | 427 kts | 17° |
| 2026-05-05 12:26 | 42.65721 | -8.16191 | 34079 ft | 427 kts | 17° |
| 2026-05-05 12:27 | 42.71234 | -8.13162 | 34081 ft | 427 kts | 17° |
| 2026-05-05 12:27 | 42.76750 | -8.10132 | 34078 ft | 428 kts | 17° |
| 2026-05-05 12:28 | 42.82275 | -8.07089 | 34081 ft | 429 kts | 17° |
| 2026-05-05 12:28 | 42.87810 | -8.04026 | 34082 ft | 429 kts | 17° |
| 2026-05-05 12:29 | 42.93312 | -8.00977 | 34080 ft | 430 kts | 18° |
| 2026-05-05 12:29 | 42.98854 | -7.97908 | 34079 ft | 430 kts | 18° |
| 2026-05-05 12:30 | 43.04399 | -7.94841 | 34077 ft | 430 kts | 18° |
| 2026-05-05 12:30 | 43.09973 | -7.91738 | 34080 ft | 430 kts | 18° |
| 2026-05-05 12:31 | 43.15514 | -7.88648 | 34073 ft | 430 kts | 18° |
| 2026-05-05 12:31 | 43.21051 | -7.85562 | 34078 ft | 430 kts | 18° |
| 2026-05-05 12:32 | 43.26589 | -7.82452 | 34078 ft | 430 kts | 18° |
| 2026-05-05 12:32 | 43.32127 | -7.79337 | 34075 ft | 430 kts | 18° |
| 2026-05-05 12:33 | 43.37669 | -7.76231 | 34079 ft | 430 kts | 18° |
| 2026-05-05 12:33 | 43.43212 | -7.73115 | 34077 ft | 431 kts | 18° |
| 2026-05-05 12:34 | 43.48757 | -7.69984 | 34079 ft | 431 kts | 18° |
| 2026-05-05 12:34 | 43.54302 | -7.66847 | 34077 ft | 431 kts | 19° |
| 2026-05-05 12:35 | 43.59850 | -7.63706 | 34077 ft | 431 kts | 19° |
| 2026-05-05 12:35 | 43.65402 | -7.60560 | 34066 ft | 431 kts | 19° |
| 2026-05-05 12:36 | 43.70913 | -7.57424 | 34071 ft | 431 kts | 19° |
| 2026-05-05 12:36 | 43.76456 | -7.54253 | 34070 ft | 431 kts | 19° |
| 2026-05-05 12:37 | 43.81995 | -7.51082 | 34074 ft | 431 kts | 19° |
| 2026-05-05 12:37 | 43.87536 | -7.47921 | 34069 ft | 431 kts | 19° |
| 2026-05-05 12:38 | 43.93077 | -7.44752 | 34067 ft | 431 kts | 19° |
| 2026-05-05 12:38 | 43.98615 | -7.41571 | 34063 ft | 431 kts | 19° |
| 2026-05-05 12:39 | 44.04154 | -7.38389 | 34065 ft | 431 kts | 19° |
| 2026-05-05 12:39 | 44.09692 | -7.35202 | 34061 ft | 431 kts | 19° |
| 2026-05-05 12:40 | 44.15230 | -7.32000 | 34062 ft | 431 kts | 20° |
| 2026-05-05 12:40 | 44.20768 | -7.28788 | 34046 ft | 431 kts | 20° |
| 2026-05-05 12:41 | 44.26310 | -7.25571 | 34053 ft | 432 kts | 20° |
| 2026-05-05 12:41 | 44.31853 | -7.22346 | 34051 ft | 432 kts | 20° |
| 2026-05-05 12:42 | 44.37400 | -7.19118 | 34051 ft | 432 kts | 20° |
| 2026-05-05 12:42 | 44.42945 | -7.15878 | 34045 ft | 432 kts | 20° |
| 2026-05-05 12:43 | 44.48495 | -7.12626 | 34049 ft | 433 kts | 20° |
| 2026-05-05 12:43 | 44.54050 | -7.09373 | 34050 ft | 433 kts | 21° |
| 2026-05-05 12:44 | 44.59604 | -7.06108 | 34049 ft | 433 kts | 21° |
| 2026-05-05 12:44 | 44.65154 | -7.02844 | 34050 ft | 433 kts | 21° |
| 2026-05-05 12:45 | 44.70710 | -6.99578 | 34048 ft | 432 kts | 21° |
| 2026-05-05 12:45 | 44.76258 | -6.96303 | 34051 ft | 432 kts | 21° |
| 2026-05-05 12:46 | 44.81794 | -6.93010 | 34055 ft | 432 kts | 22° |
| 2026-05-05 12:46 | 44.86924 | -6.88575 | 34049 ft | 435 kts | 33° |
| 2026-05-05 12:47 | 44.91844 | -6.83600 | 34052 ft | 435 kts | 34° |
| 2026-05-05 12:47 | 44.96763 | -6.78626 | 34054 ft | 435 kts | 33° |
| 2026-05-05 12:48 | 45.01685 | -6.73646 | 34053 ft | 435 kts | 34° |
| 2026-05-05 12:48 | 45.06598 | -6.68654 | 34050 ft | 435 kts | 34° |
| 2026-05-05 12:49 | 45.11514 | -6.63660 | 34049 ft | 435 kts | 34° |
| 2026-05-05 12:49 | 45.16428 | -6.58659 | 34048 ft | 435 kts | 34° |
| 2026-05-05 12:50 | 45.21336 | -6.53645 | 34048 ft | 435 kts | 34° |
| 2026-05-05 12:50 | 45.26242 | -6.48615 | 34042 ft | 435 kts | 34° |
| 2026-05-05 12:51 | 45.31146 | -6.43585 | 34037 ft | 435 kts | 34° |
| 2026-05-05 12:51 | 45.36048 | -6.38553 | 34029 ft | 435 kts | 34° |
| 2026-05-05 12:52 | 45.40949 | -6.33512 | 34026 ft | 435 kts | 34° |
| 2026-05-05 12:52 | 45.45848 | -6.28448 | 34023 ft | 435 kts | 35° |
| 2026-05-05 12:53 | 45.50740 | -6.23368 | 34017 ft | 435 kts | 35° |
| 2026-05-05 12:53 | 45.55643 | -6.18284 | 34017 ft | 435 kts | 35° |
| 2026-05-05 12:54 | 45.62987 | -6.10646 | 34016 ft | 436 kts | 35° |
| 2026-05-05 12:55 | 45.67880 | -6.05533 | 34014 ft | 436 kts | 35° |
| 2026-05-05 12:55 | 45.72775 | -6.00419 | 34009 ft | 436 kts | 35° |
| 2026-05-05 12:56 | 45.77633 | -5.95334 | 34008 ft | 436 kts | 35° |
| 2026-05-05 12:56 | 45.82524 | -5.90201 | 34007 ft | 436 kts | 36° |
| 2026-05-05 12:57 | 45.87413 | -5.85052 | 34009 ft | 436 kts | 36° |
| 2026-05-05 12:57 | 45.92302 | -5.79896 | 34019 ft | 436 kts | 36° |
| 2026-05-05 12:58 | 45.97189 | -5.74729 | 34008 ft | 436 kts | 36° |
| 2026-05-05 12:58 | 46.02072 | -5.69555 | 34013 ft | 436 kts | 36° |
| 2026-05-05 12:59 | 46.06956 | -5.64367 | 34008 ft | 436 kts | 36° |
| 2026-05-05 12:59 | 46.11838 | -5.59177 | 34010 ft | 436 kts | 36° |
| 2026-05-05 13:00 | 46.19159 | -5.51369 | 34013 ft | 436 kts | 36° |
| 2026-05-05 13:01 | 46.28907 | -5.40923 | 34009 ft | 436 kts | 37° |
| 2026-05-05 13:01 | 46.33781 | -5.35679 | 34005 ft | 437 kts | 37° |
| 2026-05-05 13:02 | 46.37833 | -5.31306 | 34000 ft | 437 kts | 37° |
| 2026-05-05 13:02 | 46.42711 | -5.26048 | 33995 ft | 437 kts | 37° |
| 2026-05-05 13:03 | 46.47588 | -5.20781 | 33990 ft | 437 kts | 37° |
| 2026-05-05 13:03 | 46.52459 | -5.15495 | 33989 ft | 437 kts | 37° |
| 2026-05-05 13:04 | 46.57326 | -5.10190 | 33989 ft | 437 kts | 38° |
| 2026-05-05 13:04 | 46.62191 | -5.04878 | 33983 ft | 437 kts | 38° |
| 2026-05-05 13:05 | 46.67057 | -4.99569 | 33988 ft | 437 kts | 38° |
| 2026-05-05 13:05 | 46.71922 | -4.94246 | 33989 ft | 437 kts | 38° |
| 2026-05-05 13:06 | 46.76789 | -4.88921 | 33989 ft | 437 kts | 38° |
| 2026-05-05 13:06 | 46.81645 | -4.83573 | 33984 ft | 437 kts | 38° |
| 2026-05-05 13:07 | 46.86491 | -4.78206 | 33979 ft | 437 kts | 38° |
| 2026-05-05 13:07 | 46.91344 | -4.72849 | 33979 ft | 437 kts | 38° |
| 2026-05-05 13:08 | 46.96196 | -4.67486 | 33980 ft | 437 kts | 38° |
| 2026-05-05 13:08 | 47.01045 | -4.62105 | 33978 ft | 437 kts | 39° |
| 2026-05-05 13:09 | 47.05895 | -4.56713 | 33972 ft | 437 kts | 39° |
| 2026-05-05 13:09 | 47.10738 | -4.51308 | 33970 ft | 437 kts | 39° |
| 2026-05-05 13:10 | 47.15579 | -4.45891 | 33971 ft | 437 kts | 39° |
| 2026-05-05 13:10 | 47.20421 | -4.40469 | 33964 ft | 437 kts | 39° |
| 2026-05-05 13:11 | 47.25228 | -4.35080 | 33957 ft | 437 kts | 39° |
| 2026-05-05 13:11 | 47.30067 | -4.29639 | 33958 ft | 438 kts | 39° |
| 2026-05-05 13:12 | 47.34904 | -4.24174 | 33953 ft | 438 kts | 39° |
| 2026-05-05 13:12 | 47.39747 | -4.18692 | 33950 ft | 439 kts | 39° |
| 2026-05-05 13:13 | 47.44596 | -4.13205 | 33949 ft | 440 kts | 39° |
| 2026-05-05 13:13 | 47.49452 | -4.07692 | 33944 ft | 440 kts | 39° |
| 2026-05-05 13:14 | 47.54193 | -4.02276 | 33954 ft | 443 kts | 40° |
| 2026-05-05 13:14 | 47.59076 | -3.96697 | 33957 ft | 443 kts | 40° |
| 2026-05-05 13:15 | 47.63952 | -3.91119 | 33958 ft | 443 kts | 40° |
| 2026-05-05 13:15 | 47.68821 | -3.85530 | 33957 ft | 443 kts | 40° |
| 2026-05-05 13:16 | 47.73692 | -3.79924 | 33954 ft | 443 kts | 40° |
| 2026-05-05 13:16 | 47.78556 | -3.74318 | 33951 ft | 443 kts | 40° |
| 2026-05-05 13:17 | 47.83426 | -3.68691 | 33951 ft | 444 kts | 40° |
| 2026-05-05 13:17 | 47.88295 | -3.63051 | 33945 ft | 443 kts | 40° |
| 2026-05-05 13:18 | 47.93167 | -3.57401 | 33951 ft | 443 kts | 40° |
| 2026-05-05 13:18 | 47.98021 | -3.51741 | 33944 ft | 443 kts | 40° |
| 2026-05-05 13:19 | 48.02872 | -3.46061 | 33944 ft | 443 kts | 40° |
| 2026-05-05 13:19 | 48.07728 | -3.40383 | 33940 ft | 443 kts | 40° |
| 2026-05-05 13:20 | 48.12582 | -3.34693 | 33952 ft | 443 kts | 41° |
| 2026-05-05 13:20 | 48.17432 | -3.28993 | 33944 ft | 443 kts | 41° |
| 2026-05-05 13:21 | 48.22285 | -3.23271 | 33948 ft | 444 kts | 41° |
| 2026-05-05 13:21 | 48.27100 | -3.17580 | 33943 ft | 444 kts | 41° |
| 2026-05-05 13:22 | 48.31956 | -3.11835 | 33940 ft | 444 kts | 41° |
| 2026-05-05 13:22 | 48.36808 | -3.06081 | 33937 ft | 444 kts | 41° |
| 2026-05-05 13:23 | 48.41659 | -3.00299 | 33934 ft | 445 kts | 41° |
| 2026-05-05 13:23 | 48.46510 | -2.94499 | 33935 ft | 445 kts | 41° |
| 2026-05-05 13:24 | 48.51359 | -2.88704 | 33929 ft | 445 kts | 41° |
| 2026-05-05 13:24 | 48.56206 | -2.82891 | 33926 ft | 445 kts | 41° |
| 2026-05-05 13:25 | 48.61052 | -2.77058 | 33933 ft | 446 kts | 41° |
| 2026-05-05 13:25 | 48.65905 | -2.71202 | 33937 ft | 446 kts | 41° |
| 2026-05-05 13:26 | 48.70754 | -2.65340 | 33932 ft | 446 kts | 41° |
| 2026-05-05 13:26 | 48.75606 | -2.59467 | 33949 ft | 447 kts | 41° |
| 2026-05-05 13:27 | 48.80473 | -2.53607 | 33936 ft | 447 kts | 40° |
| 2026-05-05 13:27 | 48.85417 | -2.47856 | 33948 ft | 448 kts | 40° |
| 2026-05-05 13:28 | 48.90374 | -2.42115 | 33943 ft | 448 kts | 40° |
| 2026-05-05 13:28 | 48.95323 | -2.36333 | 33932 ft | 449 kts | 40° |
| 2026-05-05 13:29 | 49.00267 | -2.30517 | 33934 ft | 449 kts | 40° |
| 2026-05-05 13:29 | 49.05216 | -2.24676 | 33933 ft | 450 kts | 40° |
| 2026-05-05 13:30 | 49.10165 | -2.18816 | 33930 ft | 450 kts | 40° |
| 2026-05-05 13:30 | 49.15113 | -2.12948 | 33927 ft | 451 kts | 40° |
| 2026-05-05 13:31 | 49.20075 | -2.07056 | 33461 ft | 452 kts | 40° |
| 2026-05-05 13:31 | 49.22619 | -2.04237 | 33073 ft | 452 kts | 33° |
| 2026-05-05 13:31 | 49.25353 | -2.01861 | 32694 ft | 453 kts | 31° |
| 2026-05-05 13:32 | 49.28106 | -1.99529 | 32322 ft | 452 kts | 31° |
| 2026-05-05 13:32 | 49.30858 | -1.97199 | 31949 ft | 452 kts | 31° |
| 2026-05-05 13:32 | 49.33608 | -1.94875 | 31588 ft | 451 kts | 31° |
| 2026-05-05 13:32 | 49.36357 | -1.92550 | 31228 ft | 451 kts | 31° |
| 2026-05-05 13:33 | 49.39092 | -1.90227 | 30870 ft | 450 kts | 31° |
| 2026-05-05 13:33 | 49.41832 | -1.87889 | 30515 ft | 450 kts | 31° |
| 2026-05-05 13:33 | 49.44574 | -1.85545 | 30175 ft | 450 kts | 31° |
| 2026-05-05 13:33 | 49.47315 | -1.83199 | 29795 ft | 451 kts | 31° |
| 2026-05-05 13:34 | 49.50058 | -1.80853 | 29391 ft | 451 kts | 31° |
| 2026-05-05 13:34 | 49.52803 | -1.78505 | 28994 ft | 453 kts | 31° |
| 2026-05-05 13:34 | 49.55559 | -1.76142 | 28604 ft | 454 kts | 31° |
| 2026-05-05 13:34 | 49.58320 | -1.73771 | 28214 ft | 455 kts | 30° |
| 2026-05-05 13:35 | 49.61164 | -1.71756 | 27834 ft | 457 kts | 21° |
| 2026-05-05 13:35 | 49.64166 | -1.70110 | 27462 ft | 459 kts | 21° |
| 2026-05-05 13:35 | 49.67176 | -1.68464 | 27090 ft | 458 kts | 21° |
| 2026-05-05 13:35 | 49.70175 | -1.66818 | 26727 ft | 456 kts | 21° |
| 2026-05-05 13:36 | 49.73160 | -1.65170 | 26364 ft | 454 kts | 21° |
| 2026-05-05 13:36 | 49.76123 | -1.63525 | 26003 ft | 452 kts | 21° |
| 2026-05-05 13:36 | 49.79074 | -1.61882 | 25655 ft | 449 kts | 21° |
| 2026-05-05 13:36 | 49.82006 | -1.60248 | 25305 ft | 447 kts | 21° |
| 2026-05-05 13:37 | 49.84922 | -1.58622 | 24957 ft | 444 kts | 20° |
| 2026-05-05 13:37 | 49.87818 | -1.57007 | 24620 ft | 441 kts | 20° |
| 2026-05-05 13:37 | 49.90698 | -1.55403 | 24281 ft | 438 kts | 20° |
| 2026-05-05 13:37 | 49.93554 | -1.53812 | 23950 ft | 435 kts | 20° |
| 2026-05-05 13:38 | 49.96396 | -1.52226 | 23623 ft | 432 kts | 20° |
| 2026-05-05 13:38 | 49.99216 | -1.50650 | 23251 ft | 429 kts | 20° |
| 2026-05-05 13:38 | 50.02027 | -1.49116 | 22865 ft | 427 kts | 19° |
| 2026-05-05 13:38 | 50.04838 | -1.47692 | 22477 ft | 424 kts | 18° |
| 2026-05-05 13:39 | 50.07645 | -1.46342 | 22101 ft | 421 kts | 17° |
| 2026-05-05 13:39 | 50.10437 | -1.45031 | 21718 ft | 418 kts | 17° |
| 2026-05-05 13:39 | 50.13180 | -1.43743 | 21284 ft | 404 kts | 17° |
| 2026-05-05 13:39 | 50.15815 | -1.42487 | 20885 ft | 388 kts | 18° |
| 2026-05-05 13:40 | 50.18346 | -1.41263 | 20467 ft | 374 kts | 18° |
| 2026-05-05 13:40 | 50.20787 | -1.40070 | 20062 ft | 361 kts | 18° |
| 2026-05-05 13:40 | 50.23151 | -1.38906 | 19663 ft | 352 kts | 18° |
| 2026-05-05 13:40 | 50.25470 | -1.37759 | 19274 ft | 348 kts | 18° |
| 2026-05-05 13:41 | 50.27757 | -1.36624 | 18886 ft | 341 kts | 18° |
| 2026-05-05 13:41 | 50.29988 | -1.35518 | 18460 ft | 332 kts | 18° |
| 2026-05-05 13:41 | 50.32171 | -1.34436 | 17994 ft | 325 kts | 18° |
| 2026-05-05 13:41 | 50.34302 | -1.33381 | 17510 ft | 319 kts | 18° |
| 2026-05-05 13:42 | 50.36397 | -1.32348 | 17036 ft | 313 kts | 18° |
| 2026-05-05 13:42 | 50.38455 | -1.31333 | 16565 ft | 307 kts | 18° |
| 2026-05-05 13:42 | 50.40477 | -1.30333 | 16101 ft | 302 kts | 18° |
| 2026-05-05 13:42 | 50.42467 | -1.29346 | 15636 ft | 298 kts | 18° |
| 2026-05-05 13:43 | 50.44423 | -1.28375 | 15200 ft | 291 kts | 18° |
| 2026-05-05 13:43 | 50.46330 | -1.27429 | 14746 ft | 284 kts | 18° |
| 2026-05-05 13:43 | 50.48183 | -1.26471 | 14313 ft | 277 kts | 22° |
| 2026-05-05 13:43 | 50.49914 | -1.25242 | 13886 ft | 271 kts | 29° |
| 2026-05-05 13:44 | 50.51507 | -1.23717 | 13548 ft | 267 kts | 36° |
| 2026-05-05 13:44 | 50.52968 | -1.21931 | 13326 ft | 266 kts | 40° |
| 2026-05-05 13:44 | 50.54381 | -1.20069 | 13049 ft | 264 kts | 40° |
| 2026-05-05 13:44 | 50.55789 | -1.18219 | 12938 ft | 263 kts | 40° |
| 2026-05-05 13:45 | 50.57195 | -1.16371 | 12949 ft | 264 kts | 40° |
| 2026-05-05 13:45 | 50.58578 | -1.14554 | 12949 ft | 255 kts | 40° |
| 2026-05-05 13:45 | 50.59933 | -1.12770 | 12950 ft | 253 kts | 40° |
| 2026-05-05 13:45 | 50.61278 | -1.10999 | 12957 ft | 252 kts | 40° |
| 2026-05-05 13:46 | 50.62624 | -1.09225 | 12951 ft | 252 kts | 40° |
| 2026-05-05 13:46 | 50.63966 | -1.07452 | 12954 ft | 252 kts | 40° |
| 2026-05-05 13:46 | 50.65304 | -1.05667 | 12954 ft | 252 kts | 43° |
| 2026-05-05 13:46 | 50.66526 | -1.03695 | 12954 ft | 251 kts | 50° |
| 2026-05-05 13:47 | 50.67634 | -1.01565 | 12954 ft | 251 kts | 51° |
| 2026-05-05 13:47 | 50.68738 | -0.99438 | 12951 ft | 251 kts | 51° |
| 2026-05-05 13:47 | 50.69849 | -0.97301 | 12954 ft | 251 kts | 51° |
| 2026-05-05 13:47 | 50.70957 | -0.95169 | 12952 ft | 251 kts | 51° |
| 2026-05-05 13:48 | 50.71691 | -0.93754 | 12956 ft | 252 kts | 51° |
| 2026-05-05 13:48 | 50.72798 | -0.91618 | 12955 ft | 252 kts | 51° |
| 2026-05-05 13:48 | 50.73907 | -0.89475 | 12955 ft | 252 kts | 51° |
| 2026-05-05 13:48 | 50.75012 | -0.87336 | 12958 ft | 251 kts | 51° |
| 2026-05-05 13:49 | 50.76112 | -0.85200 | 12961 ft | 251 kts | 51° |
| 2026-05-05 13:49 | 50.77210 | -0.83068 | 12964 ft | 250 kts | 51° |
| 2026-05-05 13:49 | 50.78310 | -0.80936 | 12965 ft | 250 kts | 51° |
| 2026-05-05 13:49 | 50.79410 | -0.78811 | 12964 ft | 250 kts | 51° |
| 2026-05-05 13:50 | 50.80449 | -0.76617 | 12949 ft | 249 kts | 59° |
| 2026-05-05 13:50 | 50.81192 | -0.74134 | 12594 ft | 250 kts | 71° |
| 2026-05-05 13:50 | 50.81580 | -0.71461 | 12208 ft | 249 kts | 78° |
| 2026-05-05 13:50 | 50.81898 | -0.68779 | 11826 ft | 248 kts | 78° |
| 2026-05-05 13:51 | 50.82215 | -0.66099 | 11377 ft | 247 kts | 79° |
| 2026-05-05 13:51 | 50.82526 | -0.63438 | 10928 ft | 245 kts | 79° |
| 2026-05-05 13:51 | 50.82834 | -0.60794 | 10483 ft | 244 kts | 79° |
| 2026-05-05 13:51 | 50.83140 | -0.58163 | 10052 ft | 243 kts | 79° |
| 2026-05-05 13:52 | 50.83442 | -0.55548 | 9600 ft | 240 kts | 79° |
| 2026-05-05 13:52 | 50.83742 | -0.52964 | 9115 ft | 237 kts | 79° |
| 2026-05-05 13:52 | 50.84036 | -0.50420 | 8645 ft | 234 kts | 79° |
| 2026-05-05 13:52 | 50.84325 | -0.47910 | 8196 ft | 229 kts | 79° |
| 2026-05-05 13:53 | 50.84602 | -0.45479 | 7776 ft | 221 kts | 79° |
| 2026-05-05 13:53 | 50.84875 | -0.43095 | 7530 ft | 220 kts | 79° |
| 2026-05-05 13:53 | 50.85146 | -0.40722 | 7274 ft | 219 kts | 79° |
| 2026-05-05 13:53 | 50.85416 | -0.38362 | 7037 ft | 217 kts | 79° |
| 2026-05-05 13:54 | 50.85683 | -0.36013 | 6939 ft | 217 kts | 79° |
| 2026-05-05 13:54 | 50.85950 | -0.33668 | 6948 ft | 217 kts | 79° |
| 2026-05-05 13:54 | 50.86218 | -0.31318 | 6950 ft | 217 kts | 78° |
| 2026-05-05 13:54 | 50.86485 | -0.28970 | 6946 ft | 217 kts | 78° |
| 2026-05-05 13:55 | 50.86841 | -0.26655 | 6859 ft | 218 kts | 66° |
| 2026-05-05 13:55 | 50.87756 | -0.24806 | 6487 ft | 214 kts | 37° |
| 2026-05-05 13:55 | 50.89095 | -0.23845 | 6118 ft | 212 kts | 18° |
| 2026-05-05 13:55 | 50.90492 | -0.23149 | 5724 ft | 210 kts | 18° |
| 2026-05-05 13:56 | 50.91879 | -0.22460 | 5342 ft | 206 kts | 19° |
| 2026-05-05 13:56 | 50.93227 | -0.21793 | 4978 ft | 199 kts | 18° |
| 2026-05-05 13:56 | 50.94564 | -0.21434 | 4745 ft | 194 kts | 5° |
| 2026-05-05 13:56 | 50.95915 | -0.21619 | 4482 ft | 196 kts | 351° |
| 2026-05-05 13:57 | 50.97259 | -0.22049 | 4223 ft | 197 kts | 354° |
| 2026-05-05 13:57 | 50.98538 | -0.22829 | 3973 ft | 202 kts | 326° |
| 2026-05-05 13:57 | 50.99358 | -0.24650 | 3765 ft | 207 kts | 294° |
| 2026-05-05 13:57 | 50.99792 | -0.26808 | 3563 ft | 204 kts | 289° |
| 2026-05-05 13:58 | 51.00175 | -0.28962 | 3351 ft | 202 kts | 289° |
| 2026-05-05 13:58 | 51.00547 | -0.31118 | 3180 ft | 202 kts | 288° |
| 2026-05-05 13:58 | 51.00915 | -0.33265 | 3055 ft | 201 kts | 288° |
| 2026-05-05 13:58 | 51.01271 | -0.35406 | 3007 ft | 200 kts | 287° |
| 2026-05-05 13:59 | 51.01913 | -0.39722 | 3004 ft | 202 kts | 285° |
| 2026-05-05 13:59 | 51.02228 | -0.41887 | 3005 ft | 201 kts | 286° |
| 2026-05-05 14:00 | 51.02834 | -0.46064 | 3019 ft | 191 kts | 286° |
| 2026-05-05 14:00 | 51.03134 | -0.48121 | 3005 ft | 190 kts | 286° |
| 2026-05-05 14:00 | 51.03433 | -0.50167 | 3015 ft | 191 kts | 286° |
| 2026-05-05 14:00 | 51.03810 | -0.52175 | 2995 ft | 188 kts | 301° |
| 2026-05-05 14:01 | 51.04752 | -0.53505 | 3002 ft | 181 kts | 340° |
| 2026-05-05 14:01 | 51.05963 | -0.53695 | 3019 ft | 174 kts | 6° |
| 2026-05-05 14:01 | 51.07170 | -0.53573 | 3015 ft | 173 kts | 5° |
| 2026-05-05 14:01 | 51.08367 | -0.53465 | 3006 ft | 173 kts | 5° |
| 2026-05-05 14:02 | 51.09508 | -0.52968 | 2997 ft | 172 kts | 31° |
| 2026-05-05 14:02 | 51.10292 | -0.51551 | 3006 ft | 174 kts | 63° |
| 2026-05-05 14:02 | 51.10592 | -0.49677 | 3017 ft | 175 kts | 75° |
| 2026-05-05 14:02 | 51.10833 | -0.47779 | 3015 ft | 175 kts | 76° |
| 2026-05-05 14:03 | 51.11073 | -0.45927 | 3002 ft | 168 kts | 75° |
| 2026-05-05 14:03 | 51.11319 | -0.44130 | 3010 ft | 165 kts | 75° |
| 2026-05-05 14:03 | 51.11567 | -0.42347 | 2920 ft | 164 kts | 75° |
| 2026-05-05 14:03 | 51.11813 | -0.40584 | 2742 ft | 163 kts | 74° |
| 2026-05-05 14:04 | 51.12058 | -0.38832 | 2539 ft | 162 kts | 74° |
| 2026-05-05 14:04 | 51.12300 | -0.37105 | 2325 ft | 159 kts | 74° |
| 2026-05-05 14:04 | 51.12539 | -0.35398 | 2116 ft | 157 kts | 74° |
| 2026-05-05 14:04 | 51.12768 | -0.33749 | 1896 ft | 146 kts | 74° |
| 2026-05-05 14:05 | 51.12979 | -0.32237 | 1698 ft | 135 kts | 73° |
| 2026-05-05 14:05 | 51.13177 | -0.30820 | 1509 ft | 127 kts | 74° |
| 2026-05-05 14:05 | 51.13365 | -0.29471 | 1350 ft | 124 kts | 74° |
| 2026-05-05 14:05 | 51.13551 | -0.28138 | 1171 ft | 123 kts | 73° |
| 2026-05-05 14:06 | 51.13735 | -0.26810 | 1007 ft | 123 kts | 76° |
| 2026-05-05 14:06 | 51.13915 | -0.25481 | 820 ft | 122 kts | 76° |
| 2026-05-05 14:06 | 51.14094 | -0.24157 | 684 ft | 122 kts | 76° |
| 2026-05-05 14:06 | 51.14285 | -0.22830 | 523 ft | 124 kts | 76° |
| 2026-05-05 14:07 | 51.14469 | -0.21515 | 362 ft | 122 kts | 77° |
| 2026-05-05 14:07 | 51.14647 | -0.20212 | 211 ft | 116 kts | 76° |
| 2026-05-05 14:07 | 51.14796 | -0.19158 | 209 ft | 74 kts | 77° |
| 2026-05-05 14:07 | 51.14879 | -0.18585 | 207 ft | 36 kts | 77° |
| 2026-05-05 14:08 | 51.14944 | -0.18116 | 216 ft | 32 kts | 77° |
| 2026-05-05 14:08 | 51.15022 | -0.17871 | 208 ft | 12 kts | 52° |
| 2026-05-05 14:08 | 51.15071 | -0.17776 | 207 ft | 9 kts | 41° |
| 2026-05-05 14:08 | 51.15089 | -0.17764 | 209 ft | 0 kts | 13° |
| 2026-05-05 14:10 | 51.15105 | -0.17761 | 214 ft | 6 kts | 2° |
| 2026-05-05 14:10 | 51.15140 | -0.17764 | 207 ft | 4 kts | 354° |
| 2026-05-05 14:10 | 51.15165 | -0.17768 | 207 ft | 3 kts | 354° |
| 2026-05-05 14:10 | 51.15186 | -0.17771 | 209 ft | 3 kts | 354° |
| 2026-05-05 14:11 | 51.15208 | -0.17775 | 206 ft | 3 kts | 353° |
| 2026-05-05 14:11 | 51.15243 | -0.17766 | 213 ft | 7 kts | 30° |
| 2026-05-05 14:11 | 51.15264 | -0.17697 | 212 ft | 7 kts | 76° |
| 2026-05-05 14:11 | 51.15276 | -0.17619 | 209 ft | 7 kts | 76° |
| 2026-05-05 14:12 | 51.15289 | -0.17540 | 214 ft | 7 kts | 76° |
| 2026-05-05 14:12 | 51.15300 | -0.17461 | 209 ft | 7 kts | 79° |
| 2026-05-05 14:12 | 51.15317 | -0.17391 | 218 ft | 7 kts | 48° |
| 2026-05-05 14:12 | 51.15357 | -0.17376 | 207 ft | 6 kts | 354° |
| 2026-05-05 14:13 | 51.15403 | -0.17389 | 213 ft | 7 kts | 348° |
| 2026-05-05 14:13 | 51.15448 | -0.17404 | 211 ft | 6 kts | 348° |
| 2026-05-05 14:13 | 51.15489 | -0.17418 | 204 ft | 6 kts | 348° |
| 2026-05-05 14:13 | 51.15529 | -0.17432 | 215 ft | 5 kts | 347° |
| 2026-05-05 14:14 | 51.15563 | -0.17433 | 205 ft | 5 kts | 14° |
| 2026-05-05 14:14 | 51.15585 | -0.17404 | 214 ft | 4 kts | 56° |
| 2026-05-05 14:14 | 51.15599 | -0.17329 | 205 ft | 9 kts | 74° |
| 2026-05-05 14:14 | 51.15616 | -0.17231 | 209 ft | 9 kts | 75° |
| 2026-05-05 14:15 | 51.15630 | -0.17132 | 210 ft | 9 kts | 77° |
| 2026-05-05 14:15 | 51.15637 | -0.17041 | 204 ft | 7 kts | 104° |
| 2026-05-05 14:15 | 51.15604 | -0.17011 | 213 ft | 2 kts | 169° |
| 2026-05-05 14:15 | 51.15592 | -0.17008 | 208 ft | 3 kts | 169° |
| 2026-05-05 14:16 | 51.15578 | -0.17003 | 205 ft | 2 kts | 169° |